Terminal Aerodrome Forecast
Issued by NWS

Home | Current Version | Previous Version | Text Only | Print | Product List | Glossary On
Versions: 1 2 3 4 5 6 7 8 9 10 11 12 13 14 15
000
FTUS44 KLUB 311736
TAFCDS
TAF
KCDS 311736Z 3118/0118 35010KT P6SM SCT060
     FM010500 18006KT 2SM BR BKN007 OVC020
     FM011400 20006KT P6SM OVC060=

USA.gov is the U.S. government's official web portal to all federal, state and local government web resources and services.